Tropical Cyclones
[Index]
Main Index Home Page Stock Weather Photos Extreme Storms Discussion Storm News and Storm Chasing Reports Tropical Cyclones / Hurricanes / Typhoons Weather Data and Links Wild Fires / Bushfires Weather Observation Techniques Weather Picture Catalogue Tornado Pictures and Reports Stock Video Footage and DVDs for sale
Season 1991-1992 Tropical Cyclone ESAU Track Map
Season 1991-1992 Summaries: [BoM-AU] [JTWC-AU] [JTWC-SIO] [JTWC-SPAC] [JTWC-SH]
<<- Previous TC | BoM 1991-1992 Season | Next TC ->>

click for intensity scale information  Lat/long Grid: Show Hide

 Date Labels: Show Hide

Bureau of Meteorology Tropical Cyclone Data

Name: ESAU
Number: 749 / 199192_07

27 Feb 1992 12:00 UTC to 04 Mar 1992 06:00 UTC

    date/time    lat    long    hPa   cat  kts
1992-02-27 12   15.6   163.8    975    2    54          
1992-02-27 18   15.5   163.0    968    3    54          
1992-02-28 00   15.2   162.0    955    4    60          
1992-02-28 06   15.2   161.5    940    4    64          
1992-02-28 12   14.7   160.4    925    5    70          
1992-02-28 18   14.4   160.1    925    5    99          
1992-02-29 00   14.1   159.8    925    5    99          
1992-02-29 06   13.9   159.4    935    4    99          
1992-02-29 12   13.7   159.2    940    4    99          
1992-02-29 18   13.5   159.4    940    4    89          
1992-03-01 00   13.5   159.8                89          
1992-03-01 06   13.9   160.5                89          
1992-03-01 12   14.5   160.9                89          
1992-03-01 18   14.8   161.2    930    4    99          
1992-03-02 00   15.2   161.4    930    4    99          
1992-03-02 06   16.0   162.0    930    4    99          
1992-03-02 12   16.4   162.5    930    4    99          
1992-03-02 18   16.8   163.2    930    4    99          
1992-03-03 00   17.0   163.7    930    4    99          
1992-03-03 06   17.6   164.1    930    4    99          
1992-03-03 12   18.1   164.6    930    4    99          
1992-03-03 18   18.9   165.1    935    4    97          
1992-03-04 00   19.9   165.4    940    4    89          
1992-03-04 06   20.4   165.4    945    4    86          
Winds are 10-min average.

Tropical cyclone tracks developed by Michael Bath using data from the Bureau of Meteorology and Google Maps.


[Australian Severe Weather index] [Copyright Notice] [Email Contacts] [Search This Site] [Privacy Policy]
Document: tropical_cyclone_esau.htm Updated: 30 May 2013